Vf. Omu, Romania
Current Conditions -  °F | °C
As of 4:00 AM on Friday 28 Nov 2014 (Local Time) from LRSB Reporting Station
Haze Haze  
Wind Chill: 27°   Ceiling: 400
Heat Index: 27°   Visibility: 1.3mi
Dew Point: 25°   Wind: 2mph
Humidity: 93%   Direction: 360°N
Pressure: 30.12"   Gusts: NA
Location:  45.45°N, 25.45°E
Report Text: LRSB 280100Z 36002KT 2200 BR FEW002 BKN004 M03/M04 Q1020
Loading
Personal Weather Stations






























Interactive Weather Map New forecast layout! Learn more

10-Day Weather Forecast

Advertisements
Track Severe Weather on mobile